sensor_id;sensor_type;location;lat;lon;timestamp;temperature;humidity
8792;DHT22;4432;50.890;4.744;2023-04-22T00:01:37;7.40;99.90
8792;DHT22;4432;50.890;4.744;2023-04-22T00:04:03;7.40;99.90
8792;DHT22;4432;50.890;4.744;2023-04-22T00:06:29;7.40;99.90
8792;DHT22;4432;50.890;4.744;2023-04-22T00:08:56;7.40;99.90
8792;DHT22;4432;50.890;4.744;2023-04-22T00:11:22;7.30;99.90
8792;DHT22;4432;50.890;4.744;2023-04-22T00:13:48;7.30;99.90
8792;DHT22;4432;50.890;4.744;2023-04-22T00:16:13;7.30;99.90
8792;DHT22;4432;50.890;4.744;2023-04-22T00:18:39;7.30;99.90
8792;DHT22;4432;50.890;4.744;2023-04-22T00:21:06;7.20;99.90
8792;DHT22;4432;50.890;4.744;2023-04-22T00:23:32;7.30;99.90
8792;DHT22;4432;50.890;4.744;2023-04-22T00:25:59;7.20;99.90
8792;DHT22;4432;50.890;4.744;2023-04-22T00:28:24;7.20;99.90
8792;DHT22;4432;50.890;4.744;2023-04-22T00:30:50;7.30;99.90
8792;DHT22;4432;50.890;4.744;2023-04-22T00:33:16;7.30;99.90
8792;DHT22;4432;50.890;4.744;2023-04-22T00:35:41;7.30;99.90
8792;DHT22;4432;50.890;4.744;2023-04-22T00:38:07;7.30;99.90
8792;DHT22;4432;50.890;4.744;2023-04-22T00:40:33;7.30;99.90
8792;DHT22;4432;50.890;4.744;2023-04-22T00:42:59;7.20;99.90
8792;DHT22;4432;50.890;4.744;2023-04-22T00:45:25;7.20;99.90
8792;DHT22;4432;50.890;4.744;2023-04-22T00:47:51;7.20;99.90
8792;DHT22;4432;50.890;4.744;2023-04-22T00:50:17;7.10;99.90
8792;DHT22;4432;50.890;4.744;2023-04-22T00:52:43;7.10;99.90
8792;DHT22;4432;50.890;4.744;2023-04-22T00:55:10;7.10;99.90
8792;DHT22;4432;50.890;4.744;2023-04-22T00:57:36;7.10;99.90
8792;DHT22;4432;50.890;4.744;2023-04-22T01:00:04;7.00;99.90
8792;DHT22;4432;50.890;4.744;2023-04-22T01:02:30;6.90;99.90
8792;DHT22;4432;50.890;4.744;2023-04-22T01:04:56;6.90;99.90
8792;DHT22;4432;50.890;4.744;2023-04-22T01:07:22;6.80;99.90
8792;DHT22;4432;50.890;4.744;2023-04-22T01:09:48;6.80;99.90
8792;DHT22;4432;50.890;4.744;2023-04-22T01:12:14;6.70;99.90
8792;DHT22;4432;50.890;4.744;2023-04-22T01:14:40;6.70;99.90
8792;DHT22;4432;50.890;4.744;2023-04-22T01:17:06;6.60;99.90
8792;DHT22;4432;50.890;4.744;2023-04-22T01:19:34;6.60;99.90
8792;DHT22;4432;50.890;4.744;2023-04-22T01:22:00;6.60;99.90
8792;DHT22;4432;50.890;4.744;2023-04-22T01:24:26;6.60;99.90
8792;DHT22;4432;50.890;4.744;2023-04-22T01:26:52;6.60;99.90
8792;DHT22;4432;50.890;4.744;2023-04-22T01:29:18;6.60;99.90
8792;DHT22;4432;50.890;4.744;2023-04-22T01:31:44;6.60;99.90
8792;DHT22;4432;50.890;4.744;2023-04-22T01:34:10;6.50;99.90
8792;DHT22;4432;50.890;4.744;2023-04-22T01:36:37;6.50;99.90
8792;DHT22;4432;50.890;4.744;2023-04-22T01:39:03;6.50;99.90
8792;DHT22;4432;50.890;4.744;2023-04-22T01:41:29;6.40;99.90
8792;DHT22;4432;50.890;4.744;2023-04-22T01:43:56;6.40;99.90
8792;DHT22;4432;50.890;4.744;2023-04-22T01:46:22;6.50;99.90
8792;DHT22;4432;50.890;4.744;2023-04-22T01:48:48;6.40;99.90
8792;DHT22;4432;50.890;4.744;2023-04-22T01:51:17;6.50;99.90
8792;DHT22;4432;50.890;4.744;2023-04-22T01:53:47;6.50;99.90
8792;DHT22;4432;50.890;4.744;2023-04-22T01:56:13;6.50;99.90
8792;DHT22;4432;50.890;4.744;2023-04-22T01:58:39;6.50;99.90
8792;DHT22;4432;50.890;4.744;2023-04-22T02:01:05;6.60;99.90
8792;DHT22;4432;50.890;4.744;2023-04-22T02:03:31;6.50;99.90
8792;DHT22;4432;50.890;4.744;2023-04-22T02:05:57;6.50;99.90
8792;DHT22;4432;50.890;4.744;2023-04-22T02:08:23;6.50;99.90
8792;DHT22;4432;50.890;4.744;2023-04-22T02:10:48;6.60;99.90
8792;DHT22;4432;50.890;4.744;2023-04-22T02:13:14;6.60;99.90
8792;DHT22;4432;50.890;4.744;2023-04-22T02:15:40;6.60;99.90
8792;DHT22;4432;50.890;4.744;2023-04-22T02:18:06;6.50;99.90
8792;DHT22;4432;50.890;4.744;2023-04-22T02:20:32;6.50;99.90
8792;DHT22;4432;50.890;4.744;2023-04-22T02:22:58;6.50;99.90
8792;DHT22;4432;50.890;4.744;2023-04-22T02:25:24;6.50;99.90
8792;DHT22;4432;50.890;4.744;2023-04-22T02:27:51;6.50;99.90
8792;DHT22;4432;50.890;4.744;2023-04-22T02:30:17;6.50;99.90
8792;DHT22;4432;50.890;4.744;2023-04-22T02:32:43;6.60;99.90
8792;DHT22;4432;50.890;4.744;2023-04-22T02:35:09;6.70;99.90
8792;DHT22;4432;50.890;4.744;2023-04-22T02:37:36;6.70;99.90
8792;DHT22;4432;50.890;4.744;2023-04-22T02:40:02;6.90;99.90
8792;DHT22;4432;50.890;4.744;2023-04-22T02:42:28;6.90;99.90
8792;DHT22;4432;50.890;4.744;2023-04-22T02:44:54;6.70;99.90
8792;DHT22;4432;50.890;4.744;2023-04-22T02:47:22;6.70;99.90
8792;DHT22;4432;50.890;4.744;2023-04-22T02:49:49;6.70;99.90
8792;DHT22;4432;50.890;4.744;2023-04-22T02:52:15;6.70;99.90
8792;DHT22;4432;50.890;4.744;2023-04-22T02:54:40;6.60;99.90
8792;DHT22;4432;50.890;4.744;2023-04-22T02:57:06;6.60;99.90
8792;DHT22;4432;50.890;4.744;2023-04-22T02:59:34;6.70;99.90
8792;DHT22;4432;50.890;4.744;2023-04-22T03:02:00;6.60;99.90
8792;DHT22;4432;50.890;4.744;2023-04-22T03:04:25;6.70;99.90
8792;DHT22;4432;50.890;4.744;2023-04-22T03:06:51;6.70;99.90
8792;DHT22;4432;50.890;4.744;2023-04-22T03:09:17;6.70;99.90
8792;DHT22;4432;50.890;4.744;2023-04-22T03:11:43;6.70;99.90
8792;DHT22;4432;50.890;4.744;2023-04-22T03:14:09;6.70;99.90
8792;DHT22;4432;50.890;4.744;2023-04-22T03:16:35;6.70;99.90
8792;DHT22;4432;50.890;4.744;2023-04-22T03:19:01;6.70;99.90
8792;DHT22;4432;50.890;4.744;2023-04-22T03:21:27;6.70;99.90
8792;DHT22;4432;50.890;4.744;2023-04-22T03:23:53;6.80;99.90
8792;DHT22;4432;50.890;4.744;2023-04-22T03:26:19;6.80;99.90
8792;DHT22;4432;50.890;4.744;2023-04-22T03:28:45;6.70;99.90
8792;DHT22;4432;50.890;4.744;2023-04-22T03:31:11;6.70;99.90
8792;DHT22;4432;50.890;4.744;2023-04-22T03:33:37;6.70;99.90
8792;DHT22;4432;50.890;4.744;2023-04-22T03:36:03;6.60;99.90
8792;DHT22;4432;50.890;4.744;2023-04-22T03:38:28;6.60;99.90
8792;DHT22;4432;50.890;4.744;2023-04-22T03:40:54;6.60;99.90
8792;DHT22;4432;50.890;4.744;2023-04-22T03:43:20;6.60;99.90
8792;DHT22;4432;50.890;4.744;2023-04-22T03:45:45;6.60;99.90
8792;DHT22;4432;50.890;4.744;2023-04-22T03:48:11;6.60;99.90
8792;DHT22;4432;50.890;4.744;2023-04-22T03:50:37;6.60;99.90
8792;DHT22;4432;50.890;4.744;2023-04-22T03:53:03;6.60;99.90
8792;DHT22;4432;50.890;4.744;2023-04-22T03:55:28;6.60;99.90
8792;DHT22;4432;50.890;4.744;2023-04-22T03:57:54;6.60;99.90
8792;DHT22;4432;50.890;4.744;2023-04-22T04:00:20;6.60;99.90
8792;DHT22;4432;50.890;4.744;2023-04-22T04:02:46;6.50;99.90
8792;DHT22;4432;50.890;4.744;2023-04-22T04:05:12;6.50;99.90
8792;DHT22;4432;50.890;4.744;2023-04-22T04:07:38;6.60;99.90
8792;DHT22;4432;50.890;4.744;2023-04-22T04:10:04;6.50;99.90
8792;DHT22;4432;50.890;4.744;2023-04-22T04:12:30;6.50;99.90
8792;DHT22;4432;50.890;4.744;2023-04-22T04:14:56;6.50;99.90
8792;DHT22;4432;50.890;4.744;2023-04-22T04:17:22;6.60;99.90
8792;DHT22;4432;50.890;4.744;2023-04-22T04:19:51;6.60;99.90
8792;DHT22;4432;50.890;4.744;2023-04-22T04:22:17;6.60;99.90
8792;DHT22;4432;50.890;4.744;2023-04-22T04:24:43;6.70;99.90
8792;DHT22;4432;50.890;4.744;2023-04-22T04:27:08;6.70;99.90
8792;DHT22;4432;50.890;4.744;2023-04-22T04:29:36;6.70;99.90
8792;DHT22;4432;50.890;4.744;2023-04-22T04:32:02;6.70;99.90
8792;DHT22;4432;50.890;4.744;2023-04-22T04:34:29;6.70;99.90
8792;DHT22;4432;50.890;4.744;2023-04-22T04:36:56;6.60;99.90
8792;DHT22;4432;50.890;4.744;2023-04-22T04:39:22;6.60;99.90
8792;DHT22;4432;50.890;4.744;2023-04-22T04:41:48;6.60;99.90
8792;DHT22;4432;50.890;4.744;2023-04-22T04:44:14;6.60;99.90
8792;DHT22;4432;50.890;4.744;2023-04-22T04:46:40;6.60;99.90
8792;DHT22;4432;50.890;4.744;2023-04-22T04:49:06;6.60;99.90
8792;DHT22;4432;50.890;4.744;2023-04-22T04:51:37;6.70;99.90
8792;DHT22;4432;50.890;4.744;2023-04-22T04:54:03;6.70;99.90
8792;DHT22;4432;50.890;4.744;2023-04-22T04:56:29;6.70;99.90
8792;DHT22;4432;50.890;4.744;2023-04-22T04:58:55;6.70;99.90
8792;DHT22;4432;50.890;4.744;2023-04-22T05:01:21;6.80;99.90
8792;DHT22;4432;50.890;4.744;2023-04-22T05:03:47;6.80;99.90
8792;DHT22;4432;50.890;4.744;2023-04-22T05:06:13;6.90;99.90
8792;DHT22;4432;50.890;4.744;2023-04-22T05:08:39;7.00;99.90
8792;DHT22;4432;50.890;4.744;2023-04-22T05:11:04;6.90;99.90
8792;DHT22;4432;50.890;4.744;2023-04-22T05:13:30;6.90;99.90
8792;DHT22;4432;50.890;4.744;2023-04-22T05:15:56;6.90;99.90
8792;DHT22;4432;50.890;4.744;2023-04-22T05:18:22;6.90;99.90
8792;DHT22;4432;50.890;4.744;2023-04-22T05:20:47;6.90;99.90
8792;DHT22;4432;50.890;4.744;2023-04-22T05:23:13;6.90;99.90
8792;DHT22;4432;50.890;4.744;2023-04-22T05:25:39;7.00;99.90
8792;DHT22;4432;50.890;4.744;2023-04-22T05:28:05;7.10;99.90
8792;DHT22;4432;50.890;4.744;2023-04-22T05:30:30;7.20;99.90
8792;DHT22;4432;50.890;4.744;2023-04-22T05:32:56;7.30;99.90
8792;DHT22;4432;50.890;4.744;2023-04-22T05:35:22;7.40;99.90
8792;DHT22;4432;50.890;4.744;2023-04-22T05:37:48;7.50;99.90
8792;DHT22;4432;50.890;4.744;2023-04-22T05:40:14;7.60;99.90
8792;DHT22;4432;50.890;4.744;2023-04-22T05:42:39;7.70;99.90
8792;DHT22;4432;50.890;4.744;2023-04-22T05:45:05;7.80;99.90
8792;DHT22;4432;50.890;4.744;2023-04-22T05:47:31;8.00;99.90
8792;DHT22;4432;50.890;4.744;2023-04-22T05:49:57;8.10;99.90
8792;DHT22;4432;50.890;4.744;2023-04-22T05:52:23;8.20;99.90
8792;DHT22;4432;50.890;4.744;2023-04-22T05:54:48;8.40;99.90
8792;DHT22;4432;50.890;4.744;2023-04-22T05:57:14;8.50;99.90
8792;DHT22;4432;50.890;4.744;2023-04-22T05:59:40;8.70;99.90
8792;DHT22;4432;50.890;4.744;2023-04-22T06:02:06;9.00;99.90
8792;DHT22;4432;50.890;4.744;2023-04-22T06:04:32;9.20;99.90
8792;DHT22;4432;50.890;4.744;2023-04-22T06:06:57;9.50;99.90
8792;DHT22;4432;50.890;4.744;2023-04-22T06:09:23;9.90;99.90
8792;DHT22;4432;50.890;4.744;2023-04-22T06:11:49;10.40;99.90
8792;DHT22;4432;50.890;4.744;2023-04-22T06:14:15;10.90;99.90
8792;DHT22;4432;50.890;4.744;2023-04-22T06:16:40;11.60;99.90
8792;DHT22;4432;50.890;4.744;2023-04-22T06:19:06;11.70;99.90
8792;DHT22;4432;50.890;4.744;2023-04-22T06:21:32;11.90;99.90
8792;DHT22;4432;50.890;4.744;2023-04-22T06:23:59;11.70;99.90
8792;DHT22;4432;50.890;4.744;2023-04-22T06:26:25;11.60;99.90
8792;DHT22;4432;50.890;4.744;2023-04-22T06:28:51;11.80;99.90
8792;DHT22;4432;50.890;4.744;2023-04-22T06:31:17;12.20;99.90
8792;DHT22;4432;50.890;4.744;2023-04-22T06:33:43;12.60;99.90
8792;DHT22;4432;50.890;4.744;2023-04-22T06:36:09;13.00;99.90
8792;DHT22;4432;50.890;4.744;2023-04-22T06:38:35;13.20;99.90
8792;DHT22;4432;50.890;4.744;2023-04-22T06:41:01;13.00;99.90
8792;DHT22;4432;50.890;4.744;2023-04-22T06:43:26;12.60;99.90
8792;DHT22;4432;50.890;4.744;2023-04-22T06:45:52;12.30;99.90
8792;DHT22;4432;50.890;4.744;2023-04-22T06:48:18;12.50;99.90
8792;DHT22;4432;50.890;4.744;2023-04-22T06:50:44;13.00;99.90
8792;DHT22;4432;50.890;4.744;2023-04-22T06:53:09;13.20;99.90
8792;DHT22;4432;50.890;4.744;2023-04-22T06:55:35;13.70;99.90
8792;DHT22;4432;50.890;4.744;2023-04-22T06:58:01;13.70;99.90
8792;DHT22;4432;50.890;4.744;2023-04-22T07:00:27;13.80;99.90
8792;DHT22;4432;50.890;4.744;2023-04-22T07:02:53;14.00;99.90
8792;DHT22;4432;50.890;4.744;2023-04-22T07:05:19;14.00;99.90
8792;DHT22;4432;50.890;4.744;2023-04-22T07:07:45;13.90;99.90
8792;DHT22;4432;50.890;4.744;2023-04-22T07:10:12;13.60;99.90
8792;DHT22;4432;50.890;4.744;2023-04-22T07:12:40;13.90;99.90
8792;DHT22;4432;50.890;4.744;2023-04-22T07:15:06;14.00;99.90
8792;DHT22;4432;50.890;4.744;2023-04-22T07:17:33;14.30;99.90
8792;DHT22;4432;50.890;4.744;2023-04-22T07:19:58;14.00;99.90
8792;DHT22;4432;50.890;4.744;2023-04-22T07:22:24;13.60;99.90
8792;DHT22;4432;50.890;4.744;2023-04-22T07:24:50;13.50;99.90
8792;DHT22;4432;50.890;4.744;2023-04-22T07:27:16;13.50;99.90
8792;DHT22;4432;50.890;4.744;2023-04-22T07:29:42;13.70;99.90
8792;DHT22;4432;50.890;4.744;2023-04-22T07:32:08;14.00;99.90
8792;DHT22;4432;50.890;4.744;2023-04-22T07:34:34;14.30;99.90
8792;DHT22;4432;50.890;4.744;2023-04-22T07:36:59;14.40;99.90
8792;DHT22;4432;50.890;4.744;2023-04-22T07:39:25;15.00;99.90
8792;DHT22;4432;50.890;4.744;2023-04-22T07:41:51;15.10;99.90
8792;DHT22;4432;50.890;4.744;2023-04-22T07:44:18;14.80;99.90
8792;DHT22;4432;50.890;4.744;2023-04-22T07:46:46;14.70;99.90
8792;DHT22;4432;50.890;4.744;2023-04-22T07:49:12;14.20;99.90
8792;DHT22;4432;50.890;4.744;2023-04-22T07:51:39;14.20;99.90
8792;DHT22;4432;50.890;4.744;2023-04-22T07:54:05;14.20;99.90
8792;DHT22;4432;50.890;4.744;2023-04-22T07:56:31;14.50;99.90
8792;DHT22;4432;50.890;4.744;2023-04-22T07:58:57;14.30;99.90
8792;DHT22;4432;50.890;4.744;2023-04-22T08:01:23;14.50;99.90
8792;DHT22;4432;50.890;4.744;2023-04-22T08:03:48;14.70;99.90
8792;DHT22;4432;50.890;4.744;2023-04-22T08:06:14;14.80;99.90
8792;DHT22;4432;50.890;4.744;2023-04-22T08:08:40;15.00;99.90
8792;DHT22;4432;50.890;4.744;2023-04-22T08:11:06;15.40;99.90
8792;DHT22;4432;50.890;4.744;2023-04-22T08:13:32;15.80;99.90
8792;DHT22;4432;50.890;4.744;2023-04-22T08:15:59;16.60;99.90
8792;DHT22;4432;50.890;4.744;2023-04-22T08:18:25;17.00;99.90
8792;DHT22;4432;50.890;4.744;2023-04-22T08:20:51;16.90;99.90
8792;DHT22;4432;50.890;4.744;2023-04-22T08:23:16;17.10;99.90
8792;DHT22;4432;50.890;4.744;2023-04-22T08:25:42;17.10;99.90
8792;DHT22;4432;50.890;4.744;2023-04-22T08:28:08;16.50;99.90
8792;DHT22;4432;50.890;4.744;2023-04-22T08:30:34;16.60;99.90
8792;DHT22;4432;50.890;4.744;2023-04-22T08:32:59;16.90;99.90
8792;DHT22;4432;50.890;4.744;2023-04-22T08:35:25;16.60;99.90
8792;DHT22;4432;50.890;4.744;2023-04-22T08:37:51;16.50;99.90
8792;DHT22;4432;50.890;4.744;2023-04-22T08:40:17;16.90;99.90
8792;DHT22;4432;50.890;4.744;2023-04-22T08:42:43;17.40;99.90
8792;DHT22;4432;50.890;4.744;2023-04-22T08:45:09;18.30;99.90
8792;DHT22;4432;50.890;4.744;2023-04-22T08:47:36;18.10;99.90
8792;DHT22;4432;50.890;4.744;2023-04-22T08:50:03;16.70;99.90
8792;DHT22;4432;50.890;4.744;2023-04-22T08:52:30;16.50;99.90
8792;DHT22;4432;50.890;4.744;2023-04-22T08:54:56;16.20;99.90
8792;DHT22;4432;50.890;4.744;2023-04-22T08:57:22;16.70;99.90
8792;DHT22;4432;50.890;4.744;2023-04-22T08:59:49;17.20;99.90
8792;DHT22;4432;50.890;4.744;2023-04-22T09:02:18;17.70;99.90
8792;DHT22;4432;50.890;4.744;2023-04-22T09:04:50;17.60;99.90
8792;DHT22;4432;50.890;4.744;2023-04-22T09:07:26;17.10;99.90
8792;DHT22;4432;50.890;4.744;2023-04-22T09:09:53;16.80;99.90
8792;DHT22;4432;50.890;4.744;2023-04-22T09:12:19;16.50;99.90
8792;DHT22;4432;50.890;4.744;2023-04-22T09:14:45;16.40;99.90
8792;DHT22;4432;50.890;4.744;2023-04-22T09:17:14;16.90;99.90
8792;DHT22;4432;50.890;4.744;2023-04-22T09:19:41;17.20;99.90
8792;DHT22;4432;50.890;4.744;2023-04-22T09:22:12;17.70;99.90
8792;DHT22;4432;50.890;4.744;2023-04-22T09:24:48;17.90;99.90
8792;DHT22;4432;50.890;4.744;2023-04-22T09:27:22;17.80;99.90
8792;DHT22;4432;50.890;4.744;2023-04-22T09:29:49;18.00;99.90
8792;DHT22;4432;50.890;4.744;2023-04-22T09:32:16;18.50;99.90
8792;DHT22;4432;50.890;4.744;2023-04-22T09:34:51;18.80;99.90
8792;DHT22;4432;50.890;4.744;2023-04-22T09:37:24;18.60;99.90
8792;DHT22;4432;50.890;4.744;2023-04-22T09:39:50;17.70;99.90
8792;DHT22;4432;50.890;4.744;2023-04-22T09:42:17;17.30;99.90
8792;DHT22;4432;50.890;4.744;2023-04-22T09:44:47;16.50;99.90
8792;DHT22;4432;50.890;4.744;2023-04-22T09:47:17;16.20;99.90
8792;DHT22;4432;50.890;4.744;2023-04-22T09:49:47;15.90;99.90
8792;DHT22;4432;50.890;4.744;2023-04-22T09:52:23;15.50;99.90
8792;DHT22;4432;50.890;4.744;2023-04-22T09:54:50;15.00;99.90
8792;DHT22;4432;50.890;4.744;2023-04-22T09:57:20;14.60;99.90
8792;DHT22;4432;50.890;4.744;2023-04-22T09:59:47;14.50;99.90
8792;DHT22;4432;50.890;4.744;2023-04-22T10:02:14;14.50;99.90
8792;DHT22;4432;50.890;4.744;2023-04-22T10:04:40;14.60;99.90
8792;DHT22;4432;50.890;4.744;2023-04-22T10:07:07;14.70;99.90
8792;DHT22;4432;50.890;4.744;2023-04-22T10:09:33;14.60;99.90
8792;DHT22;4432;50.890;4.744;2023-04-22T10:11:59;14.60;99.90
8792;DHT22;4432;50.890;4.744;2023-04-22T10:14:26;14.60;99.90
8792;DHT22;4432;50.890;4.744;2023-04-22T10:16:58;14.70;99.90
8792;DHT22;4432;50.890;4.744;2023-04-22T10:19:26;14.60;99.90
8792;DHT22;4432;50.890;4.744;2023-04-22T10:21:54;14.60;99.90
8792;DHT22;4432;50.890;4.744;2023-04-22T10:24:21;14.60;99.90
8792;DHT22;4432;50.890;4.744;2023-04-22T10:26:54;14.60;99.90
8792;DHT22;4432;50.890;4.744;2023-04-22T10:29:25;14.50;99.90
8792;DHT22;4432;50.890;4.744;2023-04-22T10:34:46;14.70;99.90
8792;DHT22;4432;50.890;4.744;2023-04-22T10:37:16;14.80;99.90
8792;DHT22;4432;50.890;4.744;2023-04-22T10:39:42;14.70;99.90
8792;DHT22;4432;50.890;4.744;2023-04-22T10:42:28;14.70;99.90
8792;DHT22;4432;50.890;4.744;2023-04-22T10:44:59;14.80;99.90
8792;DHT22;4432;50.890;4.744;2023-04-22T10:47:36;14.90;99.90
8792;DHT22;4432;50.890;4.744;2023-04-22T10:50:19;15.10;99.90
8792;DHT22;4432;50.890;4.744;2023-04-22T10:52:57;15.00;99.90
8792;DHT22;4432;50.890;4.744;2023-04-22T10:55:24;15.10;99.90
8792;DHT22;4432;50.890;4.744;2023-04-22T10:57:51;15.10;99.90
8792;DHT22;4432;50.890;4.744;2023-04-22T11:00:40;15.10;99.90
8792;DHT22;4432;50.890;4.744;2023-04-22T11:05:36;15.50;99.90
8792;DHT22;4432;50.890;4.744;2023-04-22T11:08:13;15.50;99.90
8792;DHT22;4432;50.890;4.744;2023-04-22T11:10:47;15.40;99.90
8792;DHT22;4432;50.890;4.744;2023-04-22T11:13:15;15.30;99.90
8792;DHT22;4432;50.890;4.744;2023-04-22T11:15:43;15.10;99.90
8792;DHT22;4432;50.890;4.744;2023-04-22T11:18:16;15.10;99.90
8792;DHT22;4432;50.890;4.744;2023-04-22T11:20:41;14.90;99.90
8792;DHT22;4432;50.890;4.744;2023-04-22T11:23:08;15.10;99.90
8792;DHT22;4432;50.890;4.744;2023-04-22T11:25:33;15.00;99.90
8792;DHT22;4432;50.890;4.744;2023-04-22T11:27:59;15.10;99.90
8792;DHT22;4432;50.890;4.744;2023-04-22T11:30:27;14.80;99.90
8792;DHT22;4432;50.890;4.744;2023-04-22T11:32:55;15.00;99.90
8792;DHT22;4432;50.890;4.744;2023-04-22T11:35:29;15.00;99.90
8792;DHT22;4432;50.890;4.744;2023-04-22T11:37:58;14.90;99.90
8792;DHT22;4432;50.890;4.744;2023-04-22T11:40:36;14.90;99.90
8792;DHT22;4432;50.890;4.744;2023-04-22T11:43:04;15.30;99.90
8792;DHT22;4432;50.890;4.744;2023-04-22T11:45:31;15.60;99.90
8792;DHT22;4432;50.890;4.744;2023-04-22T11:47:58;15.80;99.90
8792;DHT22;4432;50.890;4.744;2023-04-22T11:50:25;15.90;99.90
8792;DHT22;4432;50.890;4.744;2023-04-22T11:52:57;15.80;99.90
8792;DHT22;4432;50.890;4.744;2023-04-22T11:55:26;15.80;99.90
8792;DHT22;4432;50.890;4.744;2023-04-22T11:57:58;15.70;99.90
8792;DHT22;4432;50.890;4.744;2023-04-22T12:00:33;15.60;99.90
8792;DHT22;4432;50.890;4.744;2023-04-22T12:03:05;15.50;99.90
8792;DHT22;4432;50.890;4.744;2023-04-22T12:08:11;15.70;99.90
8792;DHT22;4432;50.890;4.744;2023-04-22T12:10:42;15.50;99.90
8792;DHT22;4432;50.890;4.744;2023-04-22T12:13:09;15.30;99.90
8792;DHT22;4432;50.890;4.744;2023-04-22T12:15:41;15.30;99.90
8792;DHT22;4432;50.890;4.744;2023-04-22T12:18:07;15.20;99.90
8792;DHT22;4432;50.890;4.744;2023-04-22T12:20:37;15.30;99.90
8792;DHT22;4432;50.890;4.744;2023-04-22T12:23:04;15.30;99.90
8792;DHT22;4432;50.890;4.744;2023-04-22T12:25:30;15.30;99.90
8792;DHT22;4432;50.890;4.744;2023-04-22T12:27:59;15.30;99.90
8792;DHT22;4432;50.890;4.744;2023-04-22T12:30:25;15.10;99.90
8792;DHT22;4432;50.890;4.744;2023-04-22T12:32:51;15.00;99.90
8792;DHT22;4432;50.890;4.744;2023-04-22T12:35:17;15.00;99.90
8792;DHT22;4432;50.890;4.744;2023-04-22T12:37:42;15.10;99.90
8792;DHT22;4432;50.890;4.744;2023-04-22T12:40:08;15.20;99.90
8792;DHT22;4432;50.890;4.744;2023-04-22T12:42:35;15.30;99.90
8792;DHT22;4432;50.890;4.744;2023-04-22T12:45:01;15.30;99.90
8792;DHT22;4432;50.890;4.744;2023-04-22T12:47:27;15.00;99.90
8792;DHT22;4432;50.890;4.744;2023-04-22T12:49:53;14.90;99.90
8792;DHT22;4432;50.890;4.744;2023-04-22T12:52:18;14.90;99.90
8792;DHT22;4432;50.890;4.744;2023-04-22T12:54:44;14.90;99.90
8792;DHT22;4432;50.890;4.744;2023-04-22T12:57:10;15.00;99.90
8792;DHT22;4432;50.890;4.744;2023-04-22T12:59:36;15.00;99.90
8792;DHT22;4432;50.890;4.744;2023-04-22T13:02:02;15.00;99.90
8792;DHT22;4432;50.890;4.744;2023-04-22T13:04:27;15.20;99.90
8792;DHT22;4432;50.890;4.744;2023-04-22T13:06:53;15.10;99.90
8792;DHT22;4432;50.890;4.744;2023-04-22T13:09:23;15.30;99.90
8792;DHT22;4432;50.890;4.744;2023-04-22T13:11:49;15.20;99.90
8792;DHT22;4432;50.890;4.744;2023-04-22T13:14:16;15.10;99.90
8792;DHT22;4432;50.890;4.744;2023-04-22T13:16:42;15.20;99.90
8792;DHT22;4432;50.890;4.744;2023-04-22T13:19:08;15.00;99.90
8792;DHT22;4432;50.890;4.744;2023-04-22T13:21:33;14.80;99.90
8792;DHT22;4432;50.890;4.744;2023-04-22T13:24:00;14.90;99.90
8792;DHT22;4432;50.890;4.744;2023-04-22T13:26:25;15.00;99.90
8792;DHT22;4432;50.890;4.744;2023-04-22T13:28:51;15.20;99.90
8792;DHT22;4432;50.890;4.744;2023-04-22T13:31:17;15.50;99.90
8792;DHT22;4432;50.890;4.744;2023-04-22T13:33:43;15.60;99.90
8792;DHT22;4432;50.890;4.744;2023-04-22T13:36:10;15.60;99.90
8792;DHT22;4432;50.890;4.744;2023-04-22T13:38:35;15.80;99.90
8792;DHT22;4432;50.890;4.744;2023-04-22T13:41:01;15.70;99.90
8792;DHT22;4432;50.890;4.744;2023-04-22T13:43:27;15.60;99.90
8792;DHT22;4432;50.890;4.744;2023-04-22T13:45:53;15.60;99.90
8792;DHT22;4432;50.890;4.744;2023-04-22T13:48:18;15.40;99.90
8792;DHT22;4432;50.890;4.744;2023-04-22T13:50:44;15.20;99.90
8792;DHT22;4432;50.890;4.744;2023-04-22T13:53:11;15.10;99.90
8792;DHT22;4432;50.890;4.744;2023-04-22T13:55:37;14.90;99.90
8792;DHT22;4432;50.890;4.744;2023-04-22T13:58:04;14.70;99.90
8792;DHT22;4432;50.890;4.744;2023-04-22T14:00:33;14.60;99.90
8792;DHT22;4432;50.890;4.744;2023-04-22T14:02:59;14.60;99.90
8792;DHT22;4432;50.890;4.744;2023-04-22T14:05:25;14.50;99.90
8792;DHT22;4432;50.890;4.744;2023-04-22T14:07:52;14.50;99.90
8792;DHT22;4432;50.890;4.744;2023-04-22T14:10:18;14.60;99.90
8792;DHT22;4432;50.890;4.744;2023-04-22T14:12:47;14.70;99.90
8792;DHT22;4432;50.890;4.744;2023-04-22T14:15:13;14.70;99.90
8792;DHT22;4432;50.890;4.744;2023-04-22T14:17:39;14.70;99.90
8792;DHT22;4432;50.890;4.744;2023-04-22T14:20:06;14.80;99.90
8792;DHT22;4432;50.890;4.744;2023-04-22T14:22:32;14.80;99.90
8792;DHT22;4432;50.890;4.744;2023-04-22T14:24:58;14.60;99.90
8792;DHT22;4432;50.890;4.744;2023-04-22T14:27:24;14.60;99.90
8792;DHT22;4432;50.890;4.744;2023-04-22T14:29:50;14.60;99.90
8792;DHT22;4432;50.890;4.744;2023-04-22T14:32:19;14.50;99.90
8792;DHT22;4432;50.890;4.744;2023-04-22T14:34:45;14.40;99.90
8792;DHT22;4432;50.890;4.744;2023-04-22T14:37:11;14.50;99.90
8792;DHT22;4432;50.890;4.744;2023-04-22T14:39:37;14.50;99.90
8792;DHT22;4432;50.890;4.744;2023-04-22T14:42:03;14.40;99.90
8792;DHT22;4432;50.890;4.744;2023-04-22T14:44:29;14.40;99.90
8792;DHT22;4432;50.890;4.744;2023-04-22T14:46:55;14.40;99.90
8792;DHT22;4432;50.890;4.744;2023-04-22T14:49:21;14.40;99.90
8792;DHT22;4432;50.890;4.744;2023-04-22T14:51:47;14.40;99.90
8792;DHT22;4432;50.890;4.744;2023-04-22T14:54:13;14.40;99.90
8792;DHT22;4432;50.890;4.744;2023-04-22T14:56:39;14.20;99.90
8792;DHT22;4432;50.890;4.744;2023-04-22T14:59:05;14.00;99.90
8792;DHT22;4432;50.890;4.744;2023-04-22T15:01:31;13.70;99.90
8792;DHT22;4432;50.890;4.744;2023-04-22T15:03:57;13.40;99.90
8792;DHT22;4432;50.890;4.744;2023-04-22T15:06:23;13.30;99.90
8792;DHT22;4432;50.890;4.744;2023-04-22T15:08:49;13.20;99.90
8792;DHT22;4432;50.890;4.744;2023-04-22T15:11:18;13.10;99.90
8792;DHT22;4432;50.890;4.744;2023-04-22T15:13:44;12.90;99.90
8792;DHT22;4432;50.890;4.744;2023-04-22T15:16:10;12.90;99.90
8792;DHT22;4432;50.890;4.744;2023-04-22T15:18:37;12.80;99.90
8792;DHT22;4432;50.890;4.744;2023-04-22T15:21:03;12.80;99.90
8792;DHT22;4432;50.890;4.744;2023-04-22T15:23:32;12.80;99.90
8792;DHT22;4432;50.890;4.744;2023-04-22T15:25:58;12.80;99.90
8792;DHT22;4432;50.890;4.744;2023-04-22T15:28:23;12.90;99.90
8792;DHT22;4432;50.890;4.744;2023-04-22T15:30:49;12.80;99.90
8792;DHT22;4432;50.890;4.744;2023-04-22T15:33:15;12.80;99.90
8792;DHT22;4432;50.890;4.744;2023-04-22T15:35:41;12.60;99.90
8792;DHT22;4432;50.890;4.744;2023-04-22T15:38:10;12.60;99.90
8792;DHT22;4432;50.890;4.744;2023-04-22T15:40:36;12.60;99.90
8792;DHT22;4432;50.890;4.744;2023-04-22T15:43:01;12.40;99.90
8792;DHT22;4432;50.890;4.744;2023-04-22T15:45:27;12.40;99.90
8792;DHT22;4432;50.890;4.744;2023-04-22T15:47:53;12.40;99.90
8792;DHT22;4432;50.890;4.744;2023-04-22T15:50:19;12.40;99.90
8792;DHT22;4432;50.890;4.744;2023-04-22T15:52:48;12.60;99.90
8792;DHT22;4432;50.890;4.744;2023-04-22T15:55:13;12.60;99.90
8792;DHT22;4432;50.890;4.744;2023-04-22T15:57:39;12.70;99.90
8792;DHT22;4432;50.890;4.744;2023-04-22T16:00:07;12.80;99.90
8792;DHT22;4432;50.890;4.744;2023-04-22T16:02:34;12.80;99.90
8792;DHT22;4432;50.890;4.744;2023-04-22T16:05:00;12.90;99.90
8792;DHT22;4432;50.890;4.744;2023-04-22T16:07:26;12.90;99.90
8792;DHT22;4432;50.890;4.744;2023-04-22T16:09:52;12.90;99.90
8792;DHT22;4432;50.890;4.744;2023-04-22T16:12:18;12.80;99.90